Time;durP1;ratioP1;P1;durP2;ratioP2;P2;SDS_P1;SDS_P2;PMS_P1;PMS_P2;Temp;Humidity;BMP_temperature;BMP_pressure;BME280_temperature;BME280_humidity;BME280_pressure;Samples;Min_cycle;Max_cycle;Signal;HPM_P1;HPM_P2
2021/08/22 00:01:31;;;;;;;11.85;7.28;;;16.50;99.90;;;;;;5051672;28;20478;-59
2021/08/22 00:03:57;;;;;;;17.10;7.55;;;16.50;99.90;;;;;;5052084;28;20029;-61
2021/08/22 00:06:22;;;;;;;17.33;7.68;;;16.40;99.90;;;;;;5051511;28;20021;-63
2021/08/22 00:08:48;;;;;;;13.70;7.47;;;16.40;99.90;;;;;;5048148;28;20035;-61
2021/08/22 00:11:14;;;;;;;14.23;7.75;;;16.40;99.90;;;;;;5041438;28;20123;-61
2021/08/22 00:13:40;;;;;;;16.20;7.80;;;16.30;99.90;;;;;;5037067;28;20454;-61
2021/08/22 00:19:41;;;;;;;14.98;7.53;;;16.20;99.90;;;;;;5054096;28;20438;-60
2021/08/22 00:22:07;;;;;;;15.27;7.40;;;16.20;99.90;;;;;;5053259;28;20116;-61
2021/08/22 00:28:01;;;;;;;15.63;7.32;;;16.20;99.90;;;;;;5053170;28;20445;-60
2021/08/22 00:30:26;;;;;;;14.65;7.10;;;16.20;99.90;;;;;;5053555;28;20049;-61
2021/08/22 00:32:52;;;;;;;18.95;7.40;;;16.10;99.90;;;;;;5053037;28;20029;-59
2021/08/22 00:38:59;;;;;;;14.82;7.97;;;16.10;99.90;;;;;;5053342;28;20056;-60
2021/08/22 00:41:24;;;;;;;16.25;7.28;;;16.10;99.90;;;;;;5053644;28;20033;-61
2021/08/22 00:43:50;;;;;;;15.63;7.60;;;16.20;99.90;;;;;;5052838;28;20079;-59
2021/08/22 00:46:17;;;;;;;15.07;7.75;;;16.20;99.90;;;;;;5051247;28;20057;-60
2021/08/22 00:48:44;;;;;;;17.35;8.30;;;16.20;99.90;;;;;;5050563;28;20091;-59
2021/08/22 00:51:18;;;;;;;15.13;7.38;;;16.10;99.90;;;;;;5051865;28;20044;-59
2021/08/22 00:53:47;;;;;;;14.00;8.20;;;16.20;99.90;;;;;;5050518;28;20021;-60
2021/08/22 00:56:14;;;;;;;14.98;8.75;;;16.20;99.90;;;;;;5051341;28;20044;-60
2021/08/22 00:58:40;;;;;;;21.80;8.30;;;16.20;99.90;;;;;;5046062;28;20475;-60
2021/08/22 01:01:17;;;;;;;26.73;8.75;;;16.20;99.90;;;;;;5041607;28;20033;-61
2021/08/22 01:04:07;;;;;;;19.67;8.30;;;16.30;99.90;;;;;;5050337;28;20475;-60
2021/08/22 01:06:59;;;;;;;17.60;9.05;;;16.30;99.90;;;;;;5051536;28;20063;-59
2021/08/22 01:09:31;;;;;;;21.85;9.00;;;16.30;99.90;;;;;;5051370;28;20041;-60
2021/08/22 01:12:03;;;;;;;17.58;8.40;;;16.30;99.90;;;;;;5048710;28;20021;-59
2021/08/22 01:14:35;;;;;;;21.45;9.00;;;16.30;99.90;;;;;;5039448;28;20025;-59
2021/08/22 01:17:02;;;;;;;16.67;8.48;;;16.30;99.90;;;;;;5049828;28;20068;-61
2021/08/22 01:19:34;;;;;;;21.25;8.18;;;16.40;99.90;;;;;;5050806;28;20036;-59
2021/08/22 01:22:03;;;;;;;21.55;8.70;;;16.40;99.90;;;;;;5050209;28;20048;-59
2021/08/22 01:24:30;;;;;;;16.90;8.38;;;16.40;99.90;;;;;;5036784;28;20044;-61
2021/08/22 01:26:59;;;;;;;19.95;8.43;;;16.40;99.90;;;;;;5041603;28;20065;-61
2021/08/22 01:29:29;;;;;;;20.77;9.23;;;16.40;99.90;;;;;;5045990;28;20055;-60
2021/08/22 01:31:59;;;;;;;24.20;9.00;;;16.40;99.90;;;;;;5050451;28;20033;-61
2021/08/22 01:34:26;;;;;;;22.65;9.02;;;16.40;99.90;;;;;;5050426;28;20378;-60
2021/08/22 01:36:52;;;;;;;26.92;10.15;;;16.40;99.90;;;;;;5050831;28;20033;-60
2021/08/22 01:39:19;;;;;;;16.92;9.50;;;16.40;99.90;;;;;;5049009;28;20029;-61
2021/08/22 01:41:47;;;;;;;21.55;9.65;;;16.40;99.90;;;;;;5050885;28;20021;-62
2021/08/22 01:44:15;;;;;;;23.02;10.70;;;16.50;99.90;;;;;;5050151;28;20044;-60
2021/08/22 01:46:42;;;;;;;21.00;10.50;;;16.50;99.90;;;;;;5050513;28;20017;-60
2021/08/22 01:49:09;;;;;;;28.60;12.25;;;16.50;99.90;;;;;;5050009;28;20045;-61
2021/08/22 01:51:35;;;;;;;31.35;12.98;;;16.50;99.90;;;;;;5050596;28;20037;-59
2021/08/22 01:54:09;;;;;;;22.80;12.63;;;16.50;99.90;;;;;;5050062;28;20112;-59
2021/08/22 01:56:40;;;;;;;21.63;12.45;;;16.60;99.90;;;;;;5050761;28;20029;-60
2021/08/22 01:59:06;;;;;;;27.08;12.48;;;16.60;99.90;;;;;;5050154;28;20036;-60
2021/08/22 02:01:34;;;;;;;29.58;14.20;;;16.60;99.90;;;;;;5050788;28;20086;-60
2021/08/22 02:04:00;;;;;;;30.85;14.23;;;16.60;99.90;;;;;;5049742;28;20029;-59
2021/08/22 02:06:54;;;;;;;31.58;15.50;;;16.70;99.90;;;;;;5050795;28;20041;-61
2021/08/22 02:09:30;;;;;;;34.85;17.08;;;16.80;99.90;;;;;;5049539;28;20464;-59
2021/08/22 02:12:01;;;;;;;31.88;15.25;;;16.80;99.90;;;;;;5053266;28;20033;-60
2021/08/22 02:14:31;;;;;;;26.90;15.77;;;16.80;99.90;;;;;;5045817;28;20017;-63
2021/08/22 02:16:57;;;;;;;38.45;18.50;;;16.80;99.90;;;;;;5054170;28;20075;-60
2021/08/22 02:19:24;;;;;;;42.67;21.58;;;16.70;99.90;;;;;;5050523;28;20388;-60
2021/08/22 02:21:52;;;;;;;41.20;22.33;;;16.80;99.90;;;;;;5043360;28;20032;-60
2021/08/22 02:24:18;;;;;;;41.08;22.92;;;16.80;99.90;;;;;;5038224;28;20042;-60
2021/08/22 02:26:44;;;;;;;40.25;23.25;;;16.80;99.90;;;;;;5041464;28;20017;-60
2021/08/22 02:29:10;;;;;;;41.20;24.95;;;16.80;99.90;;;;;;5053299;28;20045;-60
2021/08/22 02:31:36;;;;;;;47.95;29.40;;;16.90;99.90;;;;;;5053027;28;20083;-60
2021/08/22 02:34:02;;;;;;;42.20;27.63;;;16.90;99.90;;;;;;5029536;28;20025;-60
2021/08/22 02:36:28;;;;;;;44.63;29.70;;;17.00;99.90;;;;;;5034344;28;20032;-60
2021/08/22 02:38:54;;;;;;;44.28;28.38;;;17.00;99.90;;;;;;5048219;28;20022;-60
2021/08/22 02:41:20;;;;;;;45.38;28.80;;;17.00;99.90;;;;;;5033894;28;20388;-59
2021/08/22 02:43:46;;;;;;;43.40;28.60;;;17.10;99.90;;;;;;5033124;28;20021;-60
2021/08/22 02:46:12;;;;;;;46.25;28.63;;;17.00;99.90;;;;;;5033859;28;20040;-60
2021/08/22 02:48:38;;;;;;;47.03;28.52;;;17.10;99.90;;;;;;5033079;28;20033;-60
2021/08/22 02:51:04;;;;;;;41.97;27.48;;;17.10;99.90;;;;;;5033648;28;20082;-60
2021/08/22 02:53:30;;;;;;;42.53;26.80;;;17.20;99.90;;;;;;5032805;28;20044;-60
2021/08/22 02:55:56;;;;;;;41.15;26.17;;;17.20;99.90;;;;;;5033871;28;20025;-60
2021/08/22 02:58:23;;;;;;;37.17;23.08;;;17.10;99.90;;;;;;5032742;28;20028;-59
2021/08/22 03:00:48;;;;;;;37.28;23.58;;;17.20;99.90;;;;;;5033388;28;20037;-59
2021/08/22 03:03:14;;;;;;;35.22;22.40;;;17.20;99.90;;;;;;5032760;28;20029;-59
2021/08/22 03:05:40;;;;;;;33.10;21.77;;;17.20;99.90;;;;;;5048627;28;20031;-59
2021/08/22 03:08:05;;;;;;;36.97;23.45;;;17.20;99.90;;;;;;5032495;28;20033;-60
2021/08/22 03:10:31;;;;;;;32.72;22.38;;;17.20;99.90;;;;;;5033278;28;20149;-59
2021/08/22 03:12:57;;;;;;;33.20;21.55;;;17.20;99.90;;;;;;5032575;28;20104;-63
2021/08/22 03:15:23;;;;;;;32.63;21.60;;;17.20;99.90;;;;;;5033099;28;20104;-61
2021/08/22 03:17:49;;;;;;;32.03;21.27;;;17.20;99.90;;;;;;5047952;28;20120;-58
2021/08/22 03:20:14;;;;;;;37.70;20.88;;;17.20;99.90;;;;;;5033281;28;20472;-60
2021/08/22 03:22:42;;;;;;;38.10;20.88;;;17.20;99.90;;;;;;5032236;28;20044;-61
2021/08/22 03:25:08;;;;;;;35.80;21.02;;;17.10;99.90;;;;;;5032897;28;20025;-61
2021/08/22 03:27:34;;;;;;;35.63;22.00;;;17.10;99.90;;;;;;5032973;28;20064;-60
2021/08/22 03:30:00;;;;;;;37.10;21.15;;;17.10;99.90;;;;;;5032184;28;20065;-61
2021/08/22 03:32:25;;;;;;;32.75;18.90;;;17.10;99.90;;;;;;5033187;28;20378;-59
2021/08/22 03:34:51;;;;;;;34.30;18.52;;;17.10;99.90;;;;;;5031987;28;20025;-60
2021/08/22 03:37:17;;;;;;;33.60;18.95;;;17.10;99.90;;;;;;5032988;28;20466;-60
2021/08/22 03:39:42;;;;;;;43.53;19.08;;;17.20;99.90;;;;;;5031602;28;20037;-60
2021/08/22 03:42:08;;;;;;;24.33;14.13;;;17.20;99.90;;;;;;5032729;28;20032;-61
2021/08/22 03:44:34;;;;;;;24.67;13.57;;;17.10;99.90;;;;;;5032039;28;20053;-62
2021/08/22 03:47:00;;;;;;;24.88;10.88;;;17.00;99.90;;;;;;5032579;28;20379;-60
2021/08/22 03:49:25;;;;;;;21.00;10.70;;;16.90;99.90;;;;;;5032051;28;20038;-60
2021/08/22 03:51:51;;;;;;;21.50;10.80;;;16.90;99.90;;;;;;5032500;28;20048;-61
2021/08/22 03:54:17;;;;;;;15.38;6.43;;;16.90;99.90;;;;;;5031863;28;20076;-60
2021/08/22 03:56:42;;;;;;;15.27;6.25;;;16.80;99.90;;;;;;5032312;28;20030;-60
2021/08/22 03:59:09;;;;;;;12.77;4.53;;;16.70;99.90;;;;;;5031675;28;20021;-60
2021/08/22 04:01:35;;;;;;;6.03;3.53;;;16.60;99.90;;;;;;5032828;28;20052;-60
2021/08/22 04:04:02;;;;;;;10.50;4.45;;;16.50;99.90;;;;;;5031641;28;20063;-61
2021/08/22 04:06:29;;;;;;;9.48;3.50;;;16.50;99.90;;;;;;5032041;28;20450;-59
2021/08/22 04:08:54;;;;;;;7.65;3.03;;;16.40;99.90;;;;;;5031404;28;20041;-60
2021/08/22 04:11:20;;;;;;;8.30;3.10;;;16.30;99.90;;;;;;5032135;28;20160;-60
2021/08/22 04:13:46;;;;;;;9.75;3.20;;;16.30;99.90;;;;;;5031550;28;20029;-61
2021/08/22 04:16:11;;;;;;;7.13;2.65;;;16.30;99.90;;;;;;5032128;28;20030;-60
2021/08/22 04:18:37;;;;;;;7.05;3.50;;;16.30;99.90;;;;;;5031306;28;20033;-61
2021/08/22 04:21:03;;;;;;;12.95;3.28;;;16.40;99.90;;;;;;5032150;28;20044;-61
2021/08/22 04:23:29;;;;;;;4.50;2.40;;;16.40;99.90;;;;;;5031315;28;20030;-62
2021/08/22 04:25:54;;;;;;;6.45;2.40;;;16.40;99.90;;;;;;5031895;28;20025;-60
2021/08/22 04:28:21;;;;;;;7.20;2.70;;;16.50;99.90;;;;;;5029740;28;20053;-60
2021/08/22 04:30:47;;;;;;;13.07;2.90;;;16.40;99.90;;;;;;5031842;28;20033;-59
2021/08/22 04:33:12;;;;;;;7.25;2.63;;;16.40;99.90;;;;;;5030921;28;20063;-61
2021/08/22 04:35:38;;;;;;;5.97;2.95;;;16.30;99.90;;;;;;5031230;28;20033;-59
2021/08/22 04:38:04;;;;;;;6.78;2.70;;;16.30;99.90;;;;;;5031620;28;20026;-60
2021/08/22 04:40:29;;;;;;;5.07;2.65;;;16.30;99.90;;;;;;5031176;28;20030;-59
2021/08/22 04:42:56;;;;;;;8.82;2.97;;;16.20;99.90;;;;;;5035731;28;20087;-61
2021/08/22 04:45:22;;;;;;;4.63;2.97;;;16.30;99.90;;;;;;5030526;28;20415;-58
2021/08/22 04:47:48;;;;;;;7.10;3.00;;;16.20;99.90;;;;;;5031815;28;20025;-60
2021/08/22 04:50:14;;;;;;;7.25;3.22;;;16.30;99.90;;;;;;5030678;28;20021;-60
2021/08/22 04:52:40;;;;;;;5.65;3.38;;;16.30;99.90;;;;;;5031428;28;20041;-62
2021/08/22 04:55:06;;;;;;;6.55;3.53;;;16.30;99.90;;;;;;5030343;28;20052;-60
2021/08/22 04:57:33;;;;;;;5.32;3.45;;;16.30;99.90;;;;;;5063508;28;20407;-61
2021/08/22 04:59:58;;;;;;;6.70;3.15;;;16.30;99.90;;;;;;5030546;28;20108;-60
2021/08/22 05:02:24;;;;;;;6.70;3.38;;;16.30;99.90;;;;;;5031462;28;20468;-60
2021/08/22 05:04:50;;;;;;;10.10;3.78;;;16.30;99.90;;;;;;5030842;28;20033;-60
2021/08/22 05:07:15;;;;;;;7.53;3.67;;;16.30;99.90;;;;;;5031204;28;20033;-61
2021/08/22 05:09:41;;;;;;;6.25;4.43;;;16.40;99.90;;;;;;5030624;28;20035;-60
2021/08/22 05:12:07;;;;;;;6.82;4.28;;;16.40;99.90;;;;;;5031118;28;20124;-61
2021/08/22 05:14:33;;;;;;;10.85;4.28;;;16.40;99.90;;;;;;5030470;28;20558;-59
2021/08/22 05:17:00;;;;;;;7.70;4.63;;;16.40;99.90;;;;;;5031106;28;20040;-60
2021/08/22 05:19:26;;;;;;;10.90;5.30;;;16.40;99.90;;;;;;5030420;28;20325;-58
2021/08/22 05:21:51;;;;;;;7.97;5.30;;;16.40;99.90;;;;;;5031094;28;20025;-60
2021/08/22 05:24:17;;;;;;;9.40;5.75;;;16.40;99.90;;;;;;5030208;28;20018;-59
2021/08/22 05:26:43;;;;;;;14.55;6.00;;;16.40;99.90;;;;;;5031007;28;20025;-62
2021/08/22 05:29:08;;;;;;;8.73;5.95;;;16.40;99.90;;;;;;5029906;28;20577;-59
2021/08/22 05:31:34;;;;;;;11.07;5.70;;;16.40;99.90;;;;;;5031191;28;20017;-60
2021/08/22 05:34:00;;;;;;;9.65;5.53;;;16.40;99.90;;;;;;5029750;28;20033;-58
2021/08/22 05:36:25;;;;;;;8.95;4.95;;;16.40;99.90;;;;;;5046497;28;20033;-60
2021/08/22 05:38:53;;;;;;;11.23;5.88;;;16.40;99.90;;;;;;5029995;28;20126;-60
2021/08/22 05:41:19;;;;;;;6.72;5.30;;;16.40;99.90;;;;;;5031033;28;20497;-61
2021/08/22 05:43:46;;;;;;;8.32;5.20;;;16.40;99.90;;;;;;5030088;28;20036;-59
2021/08/22 05:46:12;;;;;;;10.00;5.00;;;16.40;99.90;;;;;;5033803;28;20048;-61
2021/08/22 05:48:38;;;;;;;11.05;5.60;;;16.40;99.90;;;;;;5034329;28;20498;-59
2021/08/22 05:51:05;;;;;;;9.10;4.95;;;16.40;99.90;;;;;;5034561;28;20356;-60
2021/08/22 05:53:31;;;;;;;7.55;4.75;;;16.30;99.90;;;;;;5034942;28;20510;-63
2021/08/22 05:55:57;;;;;;;9.50;4.63;;;16.30;99.90;;;;;;5034312;28;20113;-60
2021/08/22 05:58:23;;;;;;;7.03;4.95;;;16.40;99.90;;;;;;5034529;28;20029;-61
2021/08/22 06:00:50;;;;;;;9.32;4.93;;;16.40;99.90;;;;;;5034061;28;20055;-61
2021/08/22 06:03:15;;;;;;;8.68;5.40;;;16.30;99.90;;;;;;5034849;28;20442;-58
2021/08/22 06:05:41;;;;;;;8.85;4.97;;;16.30;99.90;;;;;;5033544;28;20026;-60
2021/08/22 06:08:06;;;;;;;7.97;5.10;;;16.30;99.90;;;;;;5023479;28;20025;-61
2021/08/22 06:10:32;;;;;;;7.30;5.38;;;16.20;99.90;;;;;;5031309;28;20394;-61
2021/08/22 06:12:58;;;;;;;7.80;5.65;;;16.20;99.90;;;;;;5034944;28;20025;-62
2021/08/22 06:15:24;;;;;;;9.07;5.90;;;16.30;99.90;;;;;;5033078;28;20087;-60
2021/08/22 06:17:50;;;;;;;14.82;6.50;;;16.30;99.90;;;;;;5034520;28;20060;-60
2021/08/22 06:20:15;;;;;;;11.70;5.97;;;16.30;99.90;;;;;;5033513;28;20048;-61
2021/08/22 06:22:41;;;;;;;13.15;7.15;;;16.30;99.90;;;;;;5034066;28;20752;-62
2021/08/22 06:25:07;;;;;;;10.75;6.20;;;16.30;99.90;;;;;;5033697;28;20080;-60
2021/08/22 06:27:33;;;;;;;17.75;9.05;;;16.40;99.90;;;;;;5034059;28;20548;-61
2021/08/22 06:30:00;;;;;;;11.90;7.50;;;16.40;99.90;;;;;;5033541;28;20116;-61
2021/08/22 06:32:26;;;;;;;14.70;8.05;;;16.40;99.90;;;;;;5033938;28;20037;-60
2021/08/22 06:34:52;;;;;;;10.43;7.70;;;16.50;99.90;;;;;;5033386;28;20032;-59
2021/08/22 06:37:17;;;;;;;15.65;7.85;;;16.50;99.90;;;;;;5034171;28;20108;-61
2021/08/22 06:39:47;;;;;;;11.90;8.10;;;16.50;99.90;;;;;;5032825;28;20026;-60
2021/08/22 06:42:13;;;;;;;11.60;8.07;;;16.50;99.90;;;;;;5033837;28;20032;-60
2021/08/22 06:44:39;;;;;;;15.95;8.48;;;16.50;99.90;;;;;;5032955;28;20443;-60
2021/08/22 06:47:07;;;;;;;14.25;8.82;;;16.60;99.90;;;;;;5033959;28;20033;-61
2021/08/22 06:49:33;;;;;;;19.88;9.38;;;16.50;99.90;;;;;;5033012;28;20026;-60
2021/08/22 06:51:59;;;;;;;14.30;8.80;;;16.50;99.90;;;;;;5033765;28;20029;-60
2021/08/22 06:54:25;;;;;;;17.65;9.55;;;16.60;99.90;;;;;;5033180;28;20507;-61
2021/08/22 06:56:53;;;;;;;19.27;10.52;;;16.60;99.90;;;;;;5033316;28;20056;-61
2021/08/22 06:59:18;;;;;;;13.63;9.10;;;16.60;99.90;;;;;;5032950;28;20075;-60
2021/08/22 07:01:44;;;;;;;18.63;10.10;;;16.60;99.90;;;;;;5033436;28;20041;-62
2021/08/22 07:04:12;;;;;;;18.88;10.30;;;16.60;99.90;;;;;;5048306;28;20112;-60
2021/08/22 07:06:38;;;;;;;18.02;11.02;;;16.60;99.90;;;;;;5033701;28;20074;-60
2021/08/22 07:09:04;;;;;;;16.58;10.43;;;16.60;99.90;;;;;;5048296;28;20037;-59
2021/08/22 07:11:30;;;;;;;21.20;11.15;;;16.70;99.90;;;;;;5032849;28;20022;-60
2021/08/22 07:13:56;;;;;;;21.15;11.45;;;16.70;99.90;;;;;;5033386;28;20025;-60
2021/08/22 07:16:21;;;;;;;24.52;12.48;;;16.70;99.90;;;;;;5032492;28;20034;-61
2021/08/22 07:18:47;;;;;;;19.00;11.50;;;16.70;99.90;;;;;;5033223;28;20026;-59
2021/08/22 07:21:12;;;;;;;17.17;11.88;;;16.70;99.90;;;;;;5032501;28;20037;-59
2021/08/22 07:23:38;;;;;;;24.73;12.23;;;16.80;99.90;;;;;;5033193;28;20044;-62
2021/08/22 07:26:04;;;;;;;22.00;12.98;;;16.80;99.90;;;;;;5032100;28;20037;-59
2021/08/22 07:28:29;;;;;;;23.35;13.52;;;16.90;99.90;;;;;;5033003;28;20507;-60
2021/08/22 07:30:55;;;;;;;25.50;13.75;;;17.00;99.90;;;;;;5032162;28;20033;-59
2021/08/22 07:33:21;;;;;;;22.92;13.32;;;17.00;99.90;;;;;;5033072;28;20025;-59
2021/08/22 07:35:46;;;;;;;19.58;12.32;;;17.10;99.90;;;;;;5032021;28;20415;-59
2021/08/22 07:38:12;;;;;;;19.77;12.43;;;17.10;99.90;;;;;;5033001;28;20059;-59
2021/08/22 07:40:39;;;;;;;20.27;12.77;;;17.20;99.90;;;;;;5032059;28;20030;-59
2021/08/22 07:43:05;;;;;;;28.05;12.88;;;17.30;99.90;;;;;;5032467;28;20044;-58
2021/08/22 07:45:30;;;;;;;18.52;12.68;;;17.40;99.90;;;;;;5031824;28;20475;-60
2021/08/22 07:47:56;;;;;;;19.55;12.75;;;17.50;99.90;;;;;;5032928;28;20031;-60
2021/08/22 07:50:22;;;;;;;19.23;11.85;;;17.50;99.90;;;;;;5031689;28;20478;-59
2021/08/22 07:52:47;;;;;;;20.70;12.07;;;17.60;99.90;;;;;;5032711;28;20033;-59
2021/08/22 07:55:13;;;;;;;29.08;11.80;;;17.60;99.90;;;;;;5031549;28;20530;-60
2021/08/22 07:57:39;;;;;;;21.02;12.10;;;17.60;99.90;;;;;;5032954;28;20028;-60
2021/08/22 08:00:05;;;;;;;18.17;11.82;;;17.70;99.90;;;;;;5031425;28;20463;-61
2021/08/22 08:02:31;;;;;;;20.10;11.48;;;17.70;99.90;;;;;;5032504;28;20013;-59
2021/08/22 08:04:56;;;;;;;24.48;11.77;;;17.90;99.90;;;;;;5031619;28;20103;-59
2021/08/22 08:07:22;;;;;;;22.90;12.57;;;17.90;99.90;;;;;;5031681;28;20107;-62
2021/08/22 08:09:48;;;;;;;22.40;12.55;;;18.00;99.90;;;;;;5030368;28;20103;-60
2021/08/22 08:12:14;;;;;;;19.00;12.48;;;18.00;99.90;;;;;;5035633;28;20036;-59
2021/08/22 08:14:39;;;;;;;20.02;13.57;;;18.00;99.90;;;;;;5041829;28;20037;-61
2021/08/22 08:17:06;;;;;;;18.80;12.13;;;17.90;99.90;;;;;;5031867;28;20037;-60
2021/08/22 08:19:32;;;;;;;17.33;11.90;;;17.80;99.90;;;;;;5032037;28;20017;-60
2021/08/22 08:21:58;;;;;;;24.80;12.55;;;17.80;99.90;;;;;;5031787;28;20029;-60
2021/08/22 08:24:23;;;;;;;17.13;12.65;;;17.70;99.90;;;;;;5031623;28;20022;-61
2021/08/22 08:26:49;;;;;;;22.88;13.05;;;17.60;99.90;;;;;;5031209;28;20025;-60
2021/08/22 08:29:15;;;;;;;20.45;12.68;;;17.60;99.90;;;;;;5031859;28;20048;-61
2021/08/22 08:31:40;;;;;;;25.85;13.35;;;17.60;99.90;;;;;;5030873;28;20021;-60
2021/08/22 08:34:06;;;;;;;19.90;13.60;;;17.50;99.90;;;;;;5031737;28;20040;-59
2021/08/22 08:36:32;;;;;;;19.65;13.50;;;17.50;99.90;;;;;;5030994;28;20033;-59
2021/08/22 08:38:57;;;;;;;18.85;13.25;;;17.50;99.90;;;;;;5031393;28;20033;-60
2021/08/22 08:41:23;;;;;;;22.35;13.93;;;17.50;99.90;;;;;;5030313;28;20049;-61
2021/08/22 08:43:49;;;;;;;20.10;13.73;;;17.60;99.90;;;;;;5031670;28;20037;-60
2021/08/22 08:46:37;;;;;;;21.00;12.75;;;17.70;99.90;;;;;;5030721;28;20025;-59
2021/08/22 08:49:06;;;;;;;16.27;12.43;;;17.80;99.90;;;;;;5020514;28;20029;-62
2021/08/22 08:52:06;;;;;;;21.48;12.43;;;17.90;99.90;;;;;;5030484;28;20034;-59
2021/08/22 08:54:49;;;;;;;18.23;11.32;;;18.00;99.90;;;;;;5037984;28;20495;-60
2021/08/22 08:57:16;;;;;;;20.80;11.05;;;18.00;99.90;;;;;;5031277;28;20075;-59
2021/08/22 08:59:42;;;;;;;17.83;10.50;;;18.10;99.90;;;;;;5031449;28;20033;-60
2021/08/22 09:02:08;;;;;;;16.90;10.88;;;18.20;99.90;;;;;;5030554;28;20033;-60
2021/08/22 09:04:47;;;;;;;16.88;10.98;;;18.40;99.90;;;;;;5031291;28;20491;-60
2021/08/22 09:07:28;;;;;;;15.80;11.02;;;18.50;99.90;;;;;;5030783;28;20025;-61
2021/08/22 09:10:22;;;;;;;14.50;10.88;;;18.40;99.90;;;;;;5030936;28;20033;-61
2021/08/22 09:13:39;;;;;;;19.23;12.00;;;18.40;99.90;;;;;;5011609;28;20026;-60
2021/08/22 09:16:39;;;;;;;21.45;11.75;;;18.50;99.90;;;;;;5017727;28;20029;-60
2021/08/22 09:19:34;;;;;;;16.02;11.20;;;18.40;99.90;;;;;;5031113;28;20040;-60
2021/08/22 09:22:36;;;;;;;21.05;11.52;;;18.50;99.90;;;;;;5030351;28;20045;-60
2021/08/22 09:25:35;;;;;;;14.13;10.43;;;18.60;99.90;;;;;;5021943;28;20025;-59
2021/08/22 09:28:40;;;;;;;14.93;11.23;;;18.50;99.90;;;;;;5018339;28;20041;-59
2021/08/22 09:31:25;;;;;;;;;;;18.60;99.90;;;;;;5030477;28;20408;-60
2021/08/22 09:34:28;;;;;;;14.95;10.52;;;18.50;99.90;;;;;;5030948;28;19955;-58
2021/08/22 09:37:09;;;;;;;14.52;9.98;;;18.50;99.90;;;;;;5021023;28;20037;-62
2021/08/22 09:40:12;;;;;;;15.90;10.23;;;18.50;99.90;;;;;;5030317;28;20116;-62
2021/08/22 09:43:15;;;;;;;12.77;9.10;;;18.50;99.90;;;;;;5030609;28;20029;-60
2021/08/22 09:46:19;;;;;;;18.60;10.43;;;18.60;99.90;;;;;;5045136;28;20447;-59
2021/08/22 09:49:15;;;;;;;16.15;10.73;;;18.50;99.90;;;;;;5025802;28;20040;-61
2021/08/22 09:51:52;;;;;;;;;;;18.50;99.90;;;;;;5030028;28;20075;-60
2021/08/22 09:54:56;;;;;;;12.98;10.55;;;18.60;99.90;;;;;;5030726;28;20338;-63
2021/08/22 09:57:45;;;;;;;18.30;12.27;;;18.80;99.90;;;;;;5016903;28;20104;-62
2021/08/22 10:00:36;;;;;;;17.92;12.73;;;18.70;99.90;;;;;;5030584;28;20065;-59
2021/08/22 10:03:25;;;;;;;16.83;12.48;;;18.70;99.90;;;;;;5030396;28;20075;-60
2021/08/22 10:06:03;;;;;;;18.25;12.85;;;18.60;99.90;;;;;;5016970;28;20033;-61
2021/08/22 10:08:55;;;;;;;20.98;13.07;;;18.60;99.90;;;;;;5030442;28;20034;-60
2021/08/22 10:11:53;;;;;;;16.73;11.88;;;18.50;99.90;;;;;;5029599;28;20061;-59
2021/08/22 10:14:19;;;;;;;16.80;11.65;;;18.60;99.90;;;;;;5017222;28;20807;-61
2021/08/22 10:16:49;;;;;;;19.77;11.82;;;18.50;99.90;;;;;;5029701;28;20033;-61
2021/08/22 10:19:14;;;;;;;16.70;11.82;;;18.50;99.90;;;;;;5030439;28;20468;-60
2021/08/22 10:21:40;;;;;;;15.20;10.52;;;18.50;99.90;;;;;;5044785;28;20026;-61
2021/08/22 10:24:12;;;;;;;14.77;10.68;;;18.50;99.90;;;;;;5030400;28;20104;-61
2021/08/22 10:26:51;;;;;;;15.93;10.40;;;18.60;99.90;;;;;;5030243;28;20022;-60
2021/08/22 10:29:24;;;;;;;14.70;10.35;;;18.60;99.90;;;;;;5030458;28;20073;-61
2021/08/22 10:31:50;;;;;;;11.27;8.60;;;18.70;99.90;;;;;;5029180;28;20532;-62
2021/08/22 10:34:17;;;;;;;12.40;8.77;;;18.80;99.90;;;;;;5034170;28;20013;-59
2021/08/22 10:36:43;;;;;;;19.92;10.35;;;18.80;99.90;;;;;;5033117;28;20051;-59
2021/08/22 10:39:27;;;;;;;13.82;10.23;;;18.90;99.90;;;;;;5033780;28;20029;-62
2021/08/22 10:42:20;;;;;;;17.23;10.07;;;18.90;99.90;;;;;;5033108;28;20022;-61
2021/08/22 10:44:46;;;;;;;16.77;12.13;;;18.90;99.90;;;;;;5033751;28;20025;-60
2021/08/22 10:47:21;;;;;;;16.48;10.63;;;18.80;99.90;;;;;;5033017;28;20072;-60
2021/08/22 10:49:52;;;;;;;14.55;9.20;;;18.90;99.90;;;;;;5033744;28;20072;-60
2021/08/22 10:52:20;;;;;;;11.30;8.82;;;18.90;99.90;;;;;;5032685;28;20136;-61
2021/08/22 10:55:05;;;;;;;15.00;9.15;;;18.90;99.90;;;;;;5033564;28;20025;-61
2021/08/22 10:57:48;;;;;;;10.50;8.90;;;18.90;99.90;;;;;;5032875;28;20028;-60
2021/08/22 11:00:20;;;;;;;14.30;8.63;;;19.00;99.90;;;;;;5033530;28;20037;-61
2021/08/22 11:02:46;;;;;;;11.73;8.35;;;19.10;99.90;;;;;;5032952;28;20025;-60
2021/08/22 11:05:17;;;;;;;12.13;8.10;;;19.10;99.90;;;;;;5033340;28;20079;-60
2021/08/22 11:07:47;;;;;;;11.27;7.95;;;19.00;99.90;;;;;;5048013;28;20030;-61
2021/08/22 11:10:14;;;;;;;12.60;9.07;;;19.00;99.90;;;;;;5033279;28;20124;-61
2021/08/22 11:12:41;;;;;;;19.17;9.63;;;19.00;99.90;;;;;;5032753;28;20035;-58
2021/08/22 11:15:08;;;;;;;15.90;9.38;;;19.00;99.90;;;;;;5033333;28;20037;-59
2021/08/22 11:17:34;;;;;;;16.13;10.00;;;19.10;99.90;;;;;;5032316;28;20376;-59
2021/08/22 11:20:14;;;;;;;15.80;10.75;;;19.20;99.90;;;;;;5033110;28;20037;-58
2021/08/22 11:22:41;;;;;;;20.73;10.98;;;19.20;99.90;;;;;;5031999;28;20125;-60
2021/08/22 11:25:08;;;;;;;15.63;9.63;;;19.20;99.90;;;;;;5032735;28;20083;-59
2021/08/22 11:27:34;;;;;;;14.15;9.57;;;19.20;99.90;;;;;;5032259;28;20132;-61
2021/08/22 11:30:03;;;;;;;13.52;8.43;;;19.20;99.90;;;;;;5032694;28;20468;-62
2021/08/22 11:32:29;;;;;;;12.68;8.65;;;19.20;99.90;;;;;;5032057;28;20460;-59
2021/08/22 11:35:12;;;;;;;13.63;9.07;;;19.30;99.90;;;;;;5033131;28;20104;-61
2021/08/22 11:37:38;;;;;;;12.45;8.85;;;19.40;99.90;;;;;;5032124;28;20416;-60
2021/08/22 11:40:10;;;;;;;12.98;9.82;;;19.50;99.90;;;;;;5032831;28;20029;-60
2021/08/22 11:42:36;;;;;;;10.68;8.27;;;19.50;99.90;;;;;;5032185;28;20043;-61
2021/08/22 11:45:12;;;;;;;15.40;8.32;;;19.50;99.90;;;;;;5032141;28;20036;-60
2021/08/22 11:47:39;;;;;;;14.25;8.07;;;19.60;99.90;;;;;;5032171;28;20049;-59
2021/08/22 11:50:08;;;;;;;10.38;8.35;;;19.70;99.90;;;;;;5032500;28;20388;-61
2021/08/22 11:52:36;;;;;;;18.77;9.30;;;19.80;99.90;;;;;;5031832;28;20033;-61
2021/08/22 11:55:07;;;;;;;10.32;9.02;;;20.00;99.90;;;;;;5032766;28;20022;-60
2021/08/22 11:57:33;;;;;;;10.70;8.65;;;20.20;99.90;;;;;;5031797;28;20033;-60
2021/08/22 12:00:05;;;;;;;15.65;9.32;;;20.20;99.90;;;;;;5031128;28;20450;-61
2021/08/22 12:02:31;;;;;;;9.20;8.05;;;20.10;99.90;;;;;;5031701;28;20032;-59
2021/08/22 12:05:35;;;;;;;8.30;7.28;;;20.10;99.90;;;;;;5032440;28;20112;-61
2021/08/22 12:08:07;;;;;;;13.10;8.90;;;19.90;99.90;;;;;;5029078;28;20033;-61
2021/08/22 12:10:35;;;;;;;12.88;7.93;;;19.90;99.90;;;;;;5029595;28;20033;-62
2021/08/22 12:13:02;;;;;;;8.88;7.40;;;19.80;99.90;;;;;;5029079;28;20045;-60
2021/08/22 12:15:34;;;;;;;7.15;6.45;;;19.70;99.90;;;;;;5034654;28;20036;-61
2021/08/22 12:18:27;;;;;;;10.02;7.47;;;19.60;99.90;;;;;;5030587;28;20029;-60
2021/08/22 12:21:15;;;;;;;10.38;8.20;;;19.70;99.90;;;;;;5030742;28;20044;-58
2021/08/22 12:23:43;;;;;;;11.75;7.82;;;19.70;99.90;;;;;;5018035;28;20136;-59
2021/08/22 12:26:24;;;;;;;8.02;7.20;;;19.70;99.90;;;;;;5043570;28;20036;-60
2021/08/22 12:29:07;;;;;;;13.38;8.52;;;19.70;99.90;;;;;;5030513;28;20610;-62
2021/08/22 12:31:35;;;;;;;14.18;8.48;;;19.80;99.90;;;;;;5045413;28;20681;-59
2021/08/22 12:34:09;;;;;;;11.25;8.57;;;19.90;99.90;;;;;;5031724;28;20030;-61
2021/08/22 12:36:37;;;;;;;12.93;8.80;;;20.00;99.90;;;;;;5030594;28;20029;-61
2021/08/22 12:39:09;;;;;;;14.57;9.10;;;20.20;99.90;;;;;;5030529;28;20079;-60
2021/08/22 12:41:43;;;;;;;10.02;7.75;;;20.40;99.90;;;;;;5036275;28;20728;-59
2021/08/22 12:44:14;;;;;;;11.18;7.43;;;20.40;99.90;;;;;;5022375;28;20040;-61
2021/08/22 12:46:41;;;;;;;13.75;7.50;;;20.30;99.90;;;;;;5029288;28;20518;-61
2021/08/22 12:49:08;;;;;;;17.73;7.18;;;20.20;99.90;;;;;;5031667;28;20025;-60
2021/08/22 12:51:36;;;;;;;8.20;6.60;;;20.10;99.90;;;;;;5030820;28;20033;-62
2021/08/22 12:54:03;;;;;;;11.23;7.30;;;20.00;99.90;;;;;;5031312;28;20395;-61
2021/08/22 12:56:29;;;;;;;9.70;5.72;;;20.00;99.90;;;;;;5030456;28;20510;-61
2021/08/22 12:58:55;;;;;;;8.00;5.88;;;20.00;99.90;;;;;;5030852;28;20029;-60
2021/08/22 13:01:22;;;;;;;10.57;6.15;;;19.80;99.90;;;;;;5031186;28;20053;-59